AirNav   Pilot Hours Calculator
 
 955 users online  

CD30 Fitzpatrick Heliport
Cimarron, Colorado, USA

GOING TO CIMARRON?


FAA INFORMATION EFFECTIVE 08 SEPTEMBER 2022

Location

FAA Identifier: CD30
Lat/Long: 38-23-48.0000N 107-25-49.0000W
38-23.800000N 107-25.816667W
38.3966667,-107.4302778
(estimated)
Elevation: 9316 ft. / 2840 m (estimated)
Variation: 12E (1985)
From city: 8 miles E of CIMARRON, CO
Time zone: UTC -6 (UTC -7 during Standard Time)
Zip code: 81220

Heliport Operations

Heliport use: Private use. Permission required prior to landing
Activation date: 02/1988
Control tower: no
ARTCC: DENVER CENTER
FSS: DENVER FLIGHT SERVICE STATION
Attendance: UNATNDD
Segmented circle: no

Nearby radio navigation aids

VOR radial/distance  VOR name  Freq  Var
HBUr246/18.7BLUE MESA VOR/DME114.9014E
MTJr095/23.0MONTROSE VOR/DME117.1012E

Heliport Services

Runway Information

Helipad H1

Dimensions: 100 x 100 ft. / 30 x 30 m
Surface: gravel
Traffic pattern: leftleft

Heliport Ownership and Management from official FAA records

Ownership: Privately-owned
Owner: CENTURYLINK
9666 METRO AIRPORT AVE
BROOMFIELD, CO 80012
Phone (303) 643-4972
Manager: DARREN ALMSKOG
9666 METRO AIRPORT AVE
BROOMFIELD, CO 80012
Phone (303) 304-9960
DARREN ALMSKOG 303-304-9960 DARREN.ALMSKOG@CENTURYLINK.COM

Additional Remarks

FOR CD CTC DENVER ARTCC AT 303-651-4257.

Instrument Procedures

There are no published instrument procedures at CD30.

Some nearby airports with instrument procedures:

KMTJ - Montrose Regional Airport (23 nm W)
KGUC - Gunnison-Crested Butte Regional Airport (25 nm E)
KTEX - Telluride Regional Airport (35 nm SW)
KAJZ - Blake Field Airport (38 nm NW)
KAIB - Hopkins Field Airport (54 nm W)
 
Loc | Ops | Rwys | IFR | FBO | Links
Com | Nav | Svcs | Stats | Notes

AirBoss

 
Area around CD30 (Fitzpatrick Heliport)
 
Road maps at: MapQuest Bing Google
 
Aerial photo
No photo
 
Sectional chart

 
Airport distance calculator
Flying to Fitzpatrick Heliport? Find the distance to fly.

From to CD30

Sunrise and sunset
Times for 24-Sep-2022
 Local
(UTC-6)
 Zulu
(UTC)
Morning civil twilight06:3412:34
Sunrise07:0013:00
Sunset19:0301:03
Evening civil twilight19:3001:30

Current date and time
Zulu (UTC)  25-Sep-2022 00:07:12
Local (UTC-6)  24-Sep-2022 18:07:12
 
METAR
KMTJ 
23nm W 
242353Z AUTO 35005KT 10SM CLR 24/00 A3028 RMK AO2 SLP193 T02390000 10244 20183 56007 $
KGUC 
25nm E 
242356Z AUTO VRB04KT 10SM CLR 21/M02 A3035 RMK AO2 SLP223 T02111017 10222 20139 55004
KTEX 
35nm SW 
242335Z AUTO 31003KT 10SM CLR 17/M12 A3047 RMK AO2
KAJZ 
38nm NW 
242355Z AUTO 28010G15KT 10SM CLR 28/M09 A3023 RMK AO2 T02751091 10285 20206 PWINO
TAF
KMTJ 
23nm W 
241737Z 2418/2518 26004KT P6SM SKC FM242000 32008KT P6SM SKC FM250200 15007KT P6SM SKC
KGUC 
25nm E 
241737Z 2418/2518 VRB04KT P6SM SKC FM242000 25010KT P6SM SKC FM250200 VRB03KT P6SM SKC
NOTAMs
Click for the latest NOTAMs
NOTAMs are issued by the DoD/FAA and will open in a separate window not controlled by AirNav.

 

 
 

Would you like to see your business listed on this page?

 If your business provides an interesting product or service to pilots, flight crews, aircraft, or users of the Fitzpatrick Heliport, you should consider listing it here.  To start the listing process, click on the button below
 
Add a business
 

Other Pages about Fitzpatrick Heliport

Update a link
 
Copyright © AirNav, LLC. All rights reserved. Privacy Policy  Contact